Time;durP1;ratioP1;P1;durP2;ratioP2;P2;SDS_P1;SDS_P2;PMS_P1;PMS_P2;Temp;Humidity;BMP_temperature;BMP_pressure;BME280_temperature;BME280_humidity;BME280_pressure;Samples;Min_cycle;Max_cycle;Signal;HPM_P1;HPM_P2
2022/05/29 00:00:04;;;;;;;;;1.75;1.75;;;;;15.12;43.53;101728.22;2450971;27;44658;-75
2022/05/29 00:01:15;;;;;;;;;0.50;0.50;;;;;15.10;43.49;101719.47;2450648;27;45715;-76
2022/05/29 00:02:25;;;;;;;;;1.00;1.00;;;;;15.14;43.25;101738.75;2451028;27;45322;-75
2022/05/29 00:03:36;;;;;;;;;2.00;1.00;;;;;15.11;43.44;101725.66;2457458;27;46961;-76
2022/05/29 00:04:46;;;;;;;;;1.00;0.00;;;;;15.13;43.34;101729.97;2450097;27;45251;-75
2022/05/29 00:05:57;;;;;;;;;0.00;0.00;;;;;15.12;43.80;101730.00;2457189;27;46258;-75
2022/05/29 00:07:13;;;;;;;;;1.00;1.00;;;;;15.07;43.91;101722.22;2456491;27;45445;-75
2022/05/29 00:08:27;;;;;;;;;0.25;0.00;;;;;15.03;43.75;101717.97;2450531;27;46537;-76
2022/05/29 00:09:42;;;;;;;;;1.50;1.00;;;;;15.01;43.86;101720.69;2459967;27;44795;-75
2022/05/29 00:10:54;;;;;;;;;2.00;0.00;;;;;14.99;43.81;101719.84;2460186;27;46169;-75
2022/05/29 00:12:06;;;;;;;;;1.00;1.00;;;;;14.95;43.78;101719.13;2450967;27;44599;-76
2022/05/29 00:13:17;;;;;;;;;1.00;1.00;;;;;14.91;43.90;101719.28;2456747;27;47991;-75
2022/05/29 00:14:28;;;;;;;;;1.50;1.50;;;;;14.88;44.37;101725.56;2458234;27;45255;-75
2022/05/29 00:15:39;;;;;;;;;1.25;1.00;;;;;14.82;44.02;101721.28;2452773;27;45565;-75
2022/05/29 00:16:50;;;;;;;;;1.00;1.00;;;;;14.79;44.21;101720.56;2450553;27;45323;-75
2022/05/29 00:18:00;;;;;;;;;1.00;1.00;;;;;14.73;44.41;101721.63;2451733;27;46367;-75
2022/05/29 00:19:11;;;;;;;;;1.00;1.00;;;;;14.70;44.37;101722.59;2455668;27;45257;-75
2022/05/29 00:20:21;;;;;;;;;1.75;1.75;;;;;14.67;44.39;101714.75;2456355;27;46192;-75
2022/05/29 00:21:34;;;;;;;;;1.00;1.00;;;;;14.67;44.31;101720.03;2453610;27;45245;-76
2022/05/29 00:22:45;;;;;;;;;2.50;1.50;;;;;14.69;44.48;101720.84;2452352;27;45707;-76
2022/05/29 00:23:55;;;;;;;;;2.00;1.25;;;;;14.70;44.60;101722.59;2452664;27;45234;-75
2022/05/29 00:25:09;;;;;;;;;1.00;1.00;;;;;14.74;44.28;101720.72;2457926;27;45457;-76
2022/05/29 00:26:20;;;;;;;;;1.00;1.00;;;;;14.78;44.43;101719.69;2457677;27;44749;-76
2022/05/29 00:27:30;;;;;;;;;2.00;2.00;;;;;14.79;44.58;101716.09;2452357;27;45378;-75
2022/05/29 00:28:40;;;;;;;;;3.00;1.00;;;;;14.76;44.48;101712.72;2452431;27;45185;-75
2022/05/29 00:29:51;;;;;;;;;2.00;1.00;;;;;14.72;44.66;101712.81;2458310;27;45358;-75
2022/05/29 00:31:02;;;;;;;;;1.00;1.00;;;;;14.68;44.75;101712.97;2459515;27;45439;-76
2022/05/29 00:32:12;;;;;;;;;1.00;1.00;;;;;14.68;44.56;101713.84;2461723;27;45394;-76
2022/05/29 00:33:23;;;;;;;;;1.50;0.75;;;;;14.65;44.79;101708.66;2454632;27;45239;-75
2022/05/29 00:34:33;;;;;;;;;2.00;1.00;;;;;14.65;45.06;101721.88;2452670;27;46286;-75
2022/05/29 00:35:44;;;;;;;;;1.50;1.00;;;;;14.60;44.72;101711.47;2452736;27;45241;-75
2022/05/29 00:36:54;;;;;;;;;3.00;0.50;;;;;14.55;44.82;101708.09;2461352;27;46880;-75
2022/05/29 00:38:07;;;;;;;;;1.00;1.00;;;;;14.54;45.24;101716.97;2461784;27;45594;-76
2022/05/29 00:39:17;;;;;;;;;2.00;2.00;;;;;14.49;44.97;101709.16;2461947;27;46491;-75
2022/05/29 00:40:39;;;;;;;;;3.00;1.75;;;;;14.49;44.94;101701.25;2461463;27;44663;-75
2022/05/29 00:41:49;;;;;;;;;1.00;1.00;;;;;14.50;44.92;101702.09;2449636;27;47092;-75
2022/05/29 00:43:00;;;;;;;;;2.50;2.00;;;;;14.50;45.01;101700.34;2459031;27;45282;-75
2022/05/29 00:44:15;;;;;;;;;2.00;2.00;;;;;14.48;45.07;101718.03;2460297;27;47359;-75
2022/05/29 00:45:28;;;;;;;;;3.00;1.00;;;;;14.50;45.00;101710.03;2456371;27;45488;-75
2022/05/29 00:46:48;;;;;;;;;0.00;0.00;;;;;14.50;45.69;101712.69;2454290;27;45827;-75
2022/05/29 00:48:03;;;;;;;;;2.00;1.00;;;;;14.48;45.18;101702.19;2462338;27;45274;-75
2022/05/29 00:49:15;;;;;;;;;1.00;1.00;;;;;14.42;45.09;101707.66;2450906;27;48211;-75
2022/05/29 00:50:25;;;;;;;;;1.75;1.75;;;;;14.39;45.19;101713.94;2451965;28;44587;-75
2022/05/29 00:51:39;;;;;;;;;2.00;1.00;;;;;14.40;45.18;101706.84;2459184;27;46420;-75
2022/05/29 00:52:51;;;;;;;;;2.00;1.00;;;;;14.39;45.62;101708.66;2454460;27;44676;-75
2022/05/29 00:54:03;;;;;;;;;2.50;1.00;;;;;14.42;45.38;101712.09;2461212;27;45293;-75
2022/05/29 00:55:26;;;;;;;;;2.50;0.25;;;;;14.39;45.46;101708.66;2461394;27;44702;-75
2022/05/29 00:56:38;;;;;;;;;1.00;1.00;;;;;14.39;45.34;101711.28;2461715;27;45301;-75
2022/05/29 00:58:04;;;;;;;;;1.00;1.00;;;;;14.40;45.72;101710.38;2454021;27;45404;-75
2022/05/29 00:59:19;;;;;;;;;1.75;1.00;;;;;14.39;45.15;101713.06;2460058;27;47238;-75
2022/05/29 01:00:32;;;;;;;;;2.50;0.25;;;;;14.36;45.43;101714.03;2461686;27;45171;-75
2022/05/29 01:01:43;;;;;;;;;2.00;0.75;;;;;14.34;45.26;101707.06;2459470;27;45352;-75
2022/05/29 01:02:55;;;;;;;;;1.00;1.00;;;;;14.31;45.53;101710.69;2459951;27;44583;-75
2022/05/29 01:04:07;;;;;;;;;1.75;1.00;;;;;14.30;45.85;101714.22;2453274;27;45381;-75
2022/05/29 01:05:20;;;;;;;;;2.75;2.00;;;;;14.25;46.13;101714.38;2452150;27;45160;-75
2022/05/29 01:06:30;;;;;;;;;0.75;0.50;;;;;14.23;45.99;101715.34;2452460;27;45757;-75
2022/05/29 01:07:45;;;;;;;;;1.75;1.00;;;;;14.18;45.88;101713.72;2445582;28;45360;-75
2022/05/29 01:08:59;;;;;;;;;1.75;0.50;;;;;14.16;46.42;101707.63;2458646;27;47032;-75
2022/05/29 01:10:10;;;;;;;;;2.50;1.50;;;;;14.11;46.02;101700.75;2460509;27;45353;-75
2022/05/29 01:11:46;;;;;;;;;1.00;1.00;;;;;14.09;46.12;101703.44;2452019;28;45294;-75
2022/05/29 01:13:07;;;;;;;;;2.75;1.50;;;;;14.06;46.07;101700.91;2460031;27;44799;-75
2022/05/29 01:14:29;;;;;;;;;1.50;1.00;;;;;14.05;46.16;101699.19;2453331;27;46575;-75
2022/05/29 01:15:55;;;;;;;;;1.00;1.00;;;;;14.05;46.64;101699.19;2452091;27;44705;-75
2022/05/29 01:17:14;;;;;;;;;2.75;1.25;;;;;14.07;46.75;101703.47;2457803;27;47012;-75
2022/05/29 01:18:35;;;;;;;;;1.00;1.00;;;;;14.04;46.65;101692.16;2459842;27;44646;-75
2022/05/29 01:20:18;;;;;;;;;2.00;2.00;;;;;14.05;46.65;101700.03;2457354;27;46510;-75
2022/05/29 01:21:50;;;;;;;;;3.50;2.00;;;;;14.03;46.32;101699.22;2454259;27;45246;-75
2022/05/29 01:23:19;;;;;;;;;1.50;1.00;;;;;14.01;46.71;101697.53;2451277;27;46927;-75
2022/05/29 01:25:15;;;;;;;;;2.50;1.00;;;;;13.98;46.54;101690.56;2446665;27;45196;-76
2022/05/29 01:26:58;;;;;;;;;3.00;1.00;;;;;13.99;46.80;101694.09;2443047;27;45324;-75
2022/05/29 01:29:05;;;;;;;;;1.75;1.75;;;;;14.00;46.67;101695.81;2451738;27;45446;-75
2022/05/29 01:30:21;;;;;;;;;1.00;1.00;;;;;14.02;46.49;101686.06;2439421;28;47919;-75
2022/05/29 01:32:07;;;;;;;;;2.00;1.00;;;;;14.02;46.90;101684.28;2444502;28;44734;-75
2022/05/29 01:33:41;;;;;;;;;2.25;2.00;;;;;14.01;47.00;101681.69;2422139;28;48479;-75
2022/05/29 01:35:01;;;;;;;;;2.25;2.25;;;;;14.01;46.49;101681.69;2466885;27;45422;-75
2022/05/29 01:36:23;;;;;;;;;1.25;1.25;;;;;14.02;46.72;101680.78;2459008;27;46566;-75
2022/05/29 01:37:51;;;;;;;;;2.00;2.00;;;;;14.03;46.80;101680.72;2452173;27;45172;-75
2022/05/29 01:39:30;;;;;;;;;2.00;2.00;;;;;13.99;46.98;101679.09;2452155;27;45475;-75
2022/05/29 01:40:48;;;;;;;;;1.00;1.00;;;;;13.94;47.04;101676.59;2456124;27;45535;-75
2022/05/29 01:42:04;;;;;;;;;3.50;1.00;;;;;13.91;47.01;101675.81;2451704;27;45578;-75
2022/05/29 01:43:37;;;;;;;;;2.50;2.50;;;;;13.87;47.07;101679.50;2460455;27;44797;-75
2022/05/29 01:44:59;;;;;;;;;1.00;1.00;;;;;13.78;47.17;101670.09;2452794;27;46709;-75
2022/05/29 01:46:23;;;;;;;;;2.00;1.00;;;;;13.73;47.38;101671.06;2458442;27;45348;-75
2022/05/29 01:47:49;;;;;;;;;2.25;1.00;;;;;13.71;47.78;101672.91;2461064;27;45603;-75
2022/05/29 01:49:08;;;;;;;;;1.25;1.00;;;;;13.67;47.69;101667.78;2455530;27;44725;-75
2022/05/29 01:50:24;;;;;;;;;1.75;1.75;;;;;13.62;47.36;101670.56;2458672;27;45713;-75
2022/05/29 01:51:41;;;;;;;;;0.50;0.50;;;;;13.58;48.01;101671.56;2456979;27;44598;-75
2022/05/29 01:53:01;;;;;;;;;3.25;2.00;;;;;13.53;48.09;101678.75;2462889;27;47346;-75
2022/05/29 01:54:16;;;;;;;;;2.00;1.00;;;;;13.47;48.72;101672.72;2457413;27;45311;-75
2022/05/29 01:55:33;;;;;;;;;2.75;2.00;;;;;13.42;48.28;101677.28;2451763;27;45601;-75
2022/05/29 01:57:12;;;;;;;;;1.00;1.00;;;;;13.39;48.22;101666.81;2451933;27;45156;-75
2022/05/29 01:58:37;;;;;;;;;2.00;1.75;;;;;13.40;48.85;101676.47;2448686;27;48657;-75
2022/05/29 02:00:07;;;;;;;;;2.00;2.00;;;;;13.37;48.36;101677.41;2458560;27;45392;-75
2022/05/29 02:01:20;;;;;;;;;1.75;1.50;;;;;13.33;48.75;101673.16;2457213;27;47184;-75
2022/05/29 02:02:41;;;;;;;;;2.00;2.00;;;;;13.30;49.11;101678.50;2461151;27;45377;-75
2022/05/29 02:03:56;;;;;;;;;1.00;1.00;;;;;13.25;49.45;101680.41;2461288;27;46580;-75
2022/05/29 02:05:16;;;;;;;;;3.50;1.00;;;;;13.20;48.92;101666.50;2461607;27;45259;-75
2022/05/29 02:08:19;;;;;;;;;1.00;1.00;;;;;13.13;49.25;101673.72;2453654;27;45518;-75
2022/05/29 02:09:38;;;;;;;;;1.75;1.75;;;;;13.08;49.76;101665.06;2461469;27;45774;-75
2022/05/29 02:10:54;;;;;;;;;2.25;2.00;;;;;13.00;49.41;101666.16;2455215;27;45501;-75
2022/05/29 02:12:14;;;;;;;;;4.00;2.00;;;;;12.96;50.00;101663.66;2450989;27;48172;-75
2022/05/29 02:13:36;;;;;;;;;1.25;1.25;;;;;12.96;49.32;101677.72;2454714;27;45240;-75
2022/05/29 02:14:56;;;;;;;;;3.75;1.75;;;;;12.92;49.49;101668.13;2460487;27;45435;-75
2022/05/29 02:16:09;;;;;;;;;2.00;1.50;;;;;12.91;50.46;101674.34;2451498;27;44640;-75
2022/05/29 02:17:26;;;;;;;;;4.50;3.00;;;;;12.90;50.31;101672.59;2458818;27;48161;-75
2022/05/29 02:18:50;;;;;;;;;2.75;2.25;;;;;12.86;50.10;101666.56;2461267;27;44596;-75
2022/05/29 02:20:07;;;;;;;;;4.00;3.00;;;;;12.84;49.90;101670.97;2460425;27;45509;-75
2022/05/29 02:21:24;;;;;;;;;2.50;2.50;;;;;12.79;50.21;101668.47;2451745;27;45237;-75
2022/05/29 02:22:35;;;;;;;;;2.25;2.25;;;;;12.76;51.15;101668.56;2450652;28;47516;-75
2022/05/29 02:23:51;;;;;;;;;2.00;2.00;;;;;12.70;50.50;101666.97;2459762;27;45273;-75
2022/05/29 02:25:22;;;;;;;;;3.00;1.00;;;;;12.69;50.30;101665.22;2460662;27;47581;-75
2022/05/29 02:26:40;;;;;;;;;1.75;1.75;;;;;12.71;50.83;101658.16;2455444;27;45310;-75
2022/05/29 02:28:12;;;;;;;;;1.25;1.00;;;;;12.75;50.83;101668.59;2453537;27;45714;-75
2022/05/29 02:29:22;;;;;;;;;2.75;2.75;;;;;12.75;51.24;101665.97;2451732;27;45208;-75
2022/05/29 02:30:45;;;;;;;;;3.00;1.00;;;;;12.74;51.32;101657.19;2453962;27;47521;-75
2022/05/29 02:32:17;;;;;;;;;2.00;2.00;;;;;12.74;50.72;101665.09;2458290;27;45172;-75
2022/05/29 02:33:40;;;;;;;;;2.50;1.25;;;;;12.69;51.03;101656.47;2461046;27;45340;-75
2022/05/29 02:34:56;;;;;;;;;3.50;1.75;;;;;12.66;51.06;101656.53;2461372;27;45320;-75
2022/05/29 02:36:24;;;;;;;;;2.75;2.75;;;;;12.67;50.89;101650.34;2460002;27;47401;-75
2022/05/29 02:37:40;;;;;;;;;2.25;2.00;;;;;12.68;51.16;101657.34;2452542;27;45415;-75
2022/05/29 02:39:20;;;;;;;;;2.75;2.75;;;;;12.69;50.99;101648.56;2450833;28;45631;-75
2022/05/29 02:40:45;;;;;;;;;2.50;2.50;;;;;12.70;50.95;101647.63;2453092;27;45255;-75
2022/05/29 02:42:51;;;;;;;;;2.75;2.75;;;;;12.71;51.35;101647.59;2456602;27;45282;-75
2022/05/29 02:44:19;;;;;;;;;1.75;1.75;;;;;12.71;51.14;101641.47;2437861;27;45505;-75
2022/05/29 02:45:41;;;;;;;;;2.75;1.50;;;;;12.71;51.42;101644.97;2451167;28;46419;-75
2022/05/29 02:47:01;;;;;;;;;2.50;2.00;;;;;12.71;51.62;101652.00;2451124;27;45340;-75
2022/05/29 02:48:12;;;;;;;;;1.75;1.75;;;;;12.67;51.53;101643.31;2451223;27;45264;-75
2022/05/29 02:49:38;;;;;;;;;3.25;2.25;;;;;12.66;51.31;101636.31;2453423;27;44748;-75
2022/05/29 02:50:48;;;;;;;;;1.75;1.25;;;;;12.68;51.33;101636.25;2456639;27;45356;-75
2022/05/29 02:52:06;;;;;;;;;1.00;1.00;;;;;12.68;51.73;101636.25;2461320;27;45380;-75
2022/05/29 02:53:17;;;;;;;;;3.00;2.00;;;;;12.64;51.81;101638.13;2461068;27;46659;-75
2022/05/29 02:54:30;;;;;;;;;3.25;2.00;;;;;12.64;51.36;101637.25;2455972;27;45226;-75
2022/05/29 02:55:44;;;;;;;;;2.00;2.00;;;;;12.65;51.35;101641.59;2454762;27;46605;-75
2022/05/29 02:56:57;;;;;;;;;3.75;1.75;;;;;12.63;51.62;101628.47;2456262;27;45228;-75
2022/05/29 02:58:18;;;;;;;;;2.50;1.50;;;;;12.65;51.55;101626.66;2453388;27;46274;-75
2022/05/29 02:59:36;;;;;;;;;2.00;2.00;;;;;12.66;51.95;101635.44;2453060;27;45257;-75
2022/05/29 03:01:07;;;;;;;;;2.75;1.50;;;;;12.63;51.56;101639.03;2455501;27;45650;-75
2022/05/29 03:02:18;;;;;;;;;3.25;2.50;;;;;12.63;51.84;101622.34;2452474;27;44747;-75
2022/05/29 03:03:52;;;;;;;;;1.25;1.25;;;;;12.62;51.87;101634.66;2451121;28;46331;-75
2022/05/29 03:05:25;;;;;;;;;2.00;1.25;;;;;12.59;51.87;101638.22;2451486;27;45226;-75
2022/05/29 03:06:50;;;;;;;;;1.75;1.75;;;;;12.55;51.77;101633.94;2453222;27;45320;-75
2022/05/29 03:08:06;;;;;;;;;3.00;1.75;;;;;12.54;52.13;101629.59;2458101;27;45349;-75
2022/05/29 03:09:41;;;;;;;;;1.25;1.25;;;;;12.55;51.95;101633.94;2450750;28;45262;-75
2022/05/29 03:11:06;;;;;;;;;2.50;1.75;;;;;12.59;52.33;101635.59;2460750;27;45483;-75
2022/05/29 03:12:17;;;;;;;;;3.00;2.50;;;;;12.62;52.57;101637.28;2455917;27;45334;-76
2022/05/29 03:13:42;;;;;;;;;1.25;1.25;;;;;12.63;52.50;101635.50;2451131;28;45180;-75
2022/05/29 03:15:17;;;;;;;;;2.25;1.75;;;;;12.69;52.23;101632.72;2454825;27;48239;-75
2022/05/29 03:16:43;;;;;;;;;1.00;0.75;;;;;12.69;52.19;101638.84;2452553;27;45264;-76
2022/05/29 03:18:12;;;;;;;;;2.75;2.00;;;;;12.71;51.83;101630.91;2454830;27;46233;-76
2022/05/29 03:19:59;;;;;;;;;2.75;2.75;;;;;12.73;52.04;101629.09;2451317;28;45313;-75
2022/05/29 03:21:27;;;;;;;;;3.00;2.50;;;;;12.72;52.05;101627.34;2458559;27;46723;-75
2022/05/29 03:22:58;;;;;;;;;2.75;2.75;;;;;12.64;52.17;101624.06;2452683;27;44631;-75
2022/05/29 03:25:00;;;;;;;;;3.00;2.50;;;;;12.56;52.75;101638.34;2451035;27;45310;-75
2022/05/29 03:26:21;;;;;;;;;5.25;2.50;;;;;12.49;52.36;101629.69;2430524;28;44796;-75
2022/05/29 03:27:41;;;;;;;;;2.50;1.75;;;;;12.50;52.22;101635.84;2447190;27;46291;-75
2022/05/29 03:29:06;;;;;;;;;2.25;2.25;;;;;12.51;52.35;101637.59;2459047;27;44706;-76
2022/05/29 03:30:36;;;;;;;;;1.00;1.00;;;;;12.52;52.46;101630.56;2455066;27;45495;-75
2022/05/29 03:31:46;;;;;;;;;2.00;1.75;;;;;12.51;52.50;101632.31;2458249;27;45321;-76
2022/05/29 03:33:00;;;;;;;;;2.00;2.00;;;;;12.52;52.77;101627.91;2460367;27;46191;-76
2022/05/29 03:34:13;;;;;;;;;1.75;1.75;;;;;12.54;52.90;101634.88;2450840;27;45442;-75
2022/05/29 03:35:33;;;;;;;;;3.75;0.75;;;;;12.54;52.16;101631.38;2446985;27;47343;-75
2022/05/29 03:36:46;;;;;;;;;1.75;1.75;;;;;12.53;52.31;101637.53;2444631;28;45262;-75
2022/05/29 03:37:58;;;;;;;;;5.25;1.75;;;;;12.49;53.04;101636.78;2452737;27;47607;-75
2022/05/29 03:39:08;;;;;;;;;2.00;2.00;;;;;12.45;53.01;101625.44;2461908;27;45416;-75
2022/05/29 03:40:19;;;;;;;;;3.25;2.75;;;;;12.41;53.06;101625.56;2454048;27;48151;-75
2022/05/29 03:41:46;;;;;;;;;5.25;2.00;;;;;12.34;53.39;101625.72;2449794;27;45322;-75
2022/05/29 03:42:57;;;;;;;;;3.75;1.50;;;;;12.31;52.94;101627.56;2450562;28;46331;-75
2022/05/29 03:44:07;;;;;;;;;3.75;2.50;;;;;12.29;53.52;101626.75;2450253;28;44567;-75
2022/05/29 03:45:17;;;;;;;;;4.00;2.75;;;;;12.26;53.28;101625.03;2456617;27;45219;-75
2022/05/29 03:46:28;;;;;;;;;2.00;2.00;;;;;12.25;53.58;101623.31;2458904;27;45203;-76
2022/05/29 03:47:40;;;;;;;;;3.25;2.50;;;;;12.25;53.33;101618.03;2457389;27;45451;-75
2022/05/29 03:48:50;;;;;;;;;3.00;3.00;;;;;12.26;53.56;101619.78;2457979;27;44711;-75
2022/05/29 03:50:00;;;;;;;;;2.75;2.00;;;;;12.28;53.41;101625.88;2452680;27;47279;-75
2022/05/29 03:51:11;;;;;;;;;5.50;3.00;;;;;12.25;53.58;101624.19;2460359;27;45238;-75
2022/05/29 03:52:21;;;;;;;;;3.75;3.00;;;;;12.25;53.26;101623.31;2461174;27;46471;-75
2022/05/29 03:53:33;;;;;;;;;2.75;2.75;;;;;12.26;54.00;101632.97;2455007;27;45211;-75
2022/05/29 03:54:43;;;;;;;;;2.00;1.50;;;;;12.23;53.52;101631.25;2445078;28;48645;-75
2022/05/29 03:55:53;;;;;;;;;3.25;3.00;;;;;12.21;54.07;101632.19;2452245;27;44870;-75
2022/05/29 03:57:04;;;;;;;;;5.50;3.50;;;;;12.18;53.38;101632.28;2452478;27;45514;-75
2022/05/29 03:58:14;;;;;;;;;3.25;2.25;;;;;12.14;53.23;101627.09;2458205;27;45385;-75
2022/05/29 03:59:25;;;;;;;;;4.00;4.00;;;;;12.14;53.71;101631.50;2462414;27;45416;-75
2022/05/29 04:00:35;;;;;;;;;2.75;2.50;;;;;12.14;53.79;101631.50;2451945;28;45241;-76
2022/05/29 04:01:45;;;;;;;;;3.50;3.50;;;;;12.12;53.87;101628.84;2456135;27;45362;-75
2022/05/29 04:02:55;;;;;;;;;5.25;4.50;;;;;12.11;54.00;101635.03;2456457;27;45254;-75
2022/05/29 04:04:06;;;;;;;;;4.00;4.00;;;;;12.10;53.72;101635.09;2461126;27;46659;-75
2022/05/29 04:05:20;;;;;;;;;4.00;4.00;;;;;12.11;53.91;101634.19;2461756;27;45260;-75
2022/05/29 04:06:34;;;;;;;;;2.75;2.75;;;;;12.07;54.12;101630.78;2458355;27;45424;-75
2022/05/29 04:12:13;;;;;;;;;5.50;2.50;;;;;12.11;54.50;101634.19;2453402;27;45768;-75
2022/05/29 04:13:24;;;;;;;;;3.75;3.75;;;;;12.08;54.05;101627.22;2452455;27;45268;-75
2022/05/29 04:14:37;;;;;;;;;5.50;3.50;;;;;12.06;53.78;101620.25;2452482;27;45346;-75
2022/05/29 04:15:48;;;;;;;;;2.75;2.75;;;;;12.07;53.90;101619.34;2452338;27;45353;-75
2022/05/29 04:16:58;;;;;;;;;3.50;2.75;;;;;12.13;53.76;101625.38;2452372;27;46413;-75
2022/05/29 04:18:09;;;;;;;;;4.00;4.00;;;;;12.12;54.17;101631.50;2452804;27;45215;-75
2022/05/29 04:19:20;;;;;;;;;4.00;3.25;;;;;12.13;54.17;101630.63;2461933;27;46104;-76
2022/05/29 04:20:30;;;;;;;;;5.25;3.00;;;;;12.14;54.11;101629.75;2459946;27;45172;-75
2022/05/29 04:21:40;;;;;;;;;6.25;2.25;;;;;12.16;53.92;101629.69;2461732;27;48164;-75
2022/05/29 04:22:51;;;;;;;;;5.50;5.00;;;;;12.19;53.89;101623.47;2461477;27;45393;-75
2022/05/29 04:24:01;;;;;;;;;2.75;2.25;;;;;12.22;53.75;101626.03;2454270;27;47676;-76
2022/05/29 04:25:12;;;;;;;;;2.75;2.75;;;;;12.23;53.85;101626.00;2458927;27;45266;-75
2022/05/29 04:26:22;;;;;;;;;3.00;3.00;;;;;12.24;54.16;101630.38;2452115;28;46294;-75
2022/05/29 04:27:32;;;;;;;;;4.00;3.75;;;;;12.22;53.81;101628.69;2461697;27;44681;-75
2022/05/29 04:28:43;;;;;;;;;2.00;2.00;;;;;12.21;53.79;101627.81;2458521;27;45403;-75
2022/05/29 04:29:53;;;;;;;;;2.75;2.00;;;;;12.22;54.10;101628.69;2457844;27;45298;-75
2022/05/29 04:31:04;;;;;;;;;7.25;2.75;;;;;12.20;54.04;101627.84;2454029;27;45377;-75
2022/05/29 04:33:43;;;;;;;;;2.25;2.25;;;;;12.22;53.82;101631.31;2452270;27;45847;-75
2022/05/29 04:34:57;;;;;;;;;2.00;2.00;;;;;12.23;54.06;101631.25;2453954;27;45282;-75
2022/05/29 04:36:07;;;;;;;;;2.75;2.75;;;;;12.25;53.92;101623.31;2457859;27;46583;-75
2022/05/29 04:37:18;;;;;;;;;6.25;2.75;;;;;12.26;53.88;101630.31;2452723;27;45262;-75
2022/05/29 04:38:28;;;;;;;;;3.00;1.00;;;;;12.25;54.00;101623.31;2455187;27;46024;-75
2022/05/29 04:39:38;;;;;;;;;4.00;2.25;;;;;12.26;54.03;101622.41;2461487;27;44732;-75
2022/05/29 04:40:49;;;;;;;;;1.75;1.75;;;;;12.21;53.87;101622.53;2456346;27;46532;-75
2022/05/29 04:42:00;;;;;;;;;2.50;2.50;;;;;12.22;53.88;101618.13;2455839;27;44669;-75
2022/05/29 04:43:12;;;;;;;;;3.00;3.00;;;;;12.22;54.01;101620.78;2461209;27;45306;-75
2022/05/29 04:44:22;;;;;;;;;1.25;1.25;;;;;12.23;53.88;101620.72;2465004;27;45341;-75
2022/05/29 04:45:33;;;;;;;;;2.00;1.75;;;;;12.24;53.84;101618.97;2461356;27;46089;-75
2022/05/29 04:46:44;;;;;;;;;3.00;3.00;;;;;12.25;54.02;101618.03;2451469;27;45230;-75
2022/05/29 04:47:54;;;;;;;;;2.25;2.00;;;;;12.27;53.82;101618.88;2460292;27;45188;-75
2022/05/29 04:49:04;;;;;;;;;3.00;3.00;;;;;12.26;54.39;101625.03;2457067;27;45169;-75
2022/05/29 04:50:15;;;;;;;;;3.75;2.00;;;;;12.24;53.95;101621.59;2452147;27;46406;-75
2022/05/29 04:51:25;;;;;;;;;1.75;1.75;;;;;12.24;54.00;101632.13;2452448;27;45219;-76
2022/05/29 04:52:36;;;;;;;;;2.00;2.00;;;;;12.25;54.08;101621.53;2452210;27;46464;-75
2022/05/29 04:53:46;;;;;;;;;3.75;2.75;;;;;12.30;53.96;101626.69;2452292;27;45347;-75
2022/05/29 04:54:56;;;;;;;;;4.50;3.00;;;;;12.34;54.12;101622.22;2452165;27;46557;-75
2022/05/29 04:56:07;;;;;;;;;3.25;2.75;;;;;12.36;53.99;101621.28;2454288;27;45144;-75
2022/05/29 04:57:18;;;;;;;;;3.25;2.25;;;;;12.37;53.97;101623.00;2458683;27;46428;-75
2022/05/29 04:58:30;;;;;;;;;2.75;2.00;;;;;12.35;54.02;101623.94;2461326;27;44638;-75
2022/05/29 04:59:40;;;;;;;;;2.50;2.50;;;;;12.34;53.69;101623.09;2456753;27;46963;-75
2022/05/29 05:00:56;;;;;;;;;5.75;3.75;;;;;12.34;54.10;101620.47;2452805;27;45416;-75
2022/05/29 05:02:07;;;;;;;;;3.75;3.75;;;;;12.33;53.99;101623.09;2444986;28;47009;-75
2022/05/29 05:03:18;;;;;;;;;2.75;2.75;;;;;12.36;54.11;101626.53;2451096;27;45314;-75
2022/05/29 05:04:28;;;;;;;;;3.75;3.75;;;;;12.35;54.04;101619.53;2452004;27;45381;-75
2022/05/29 05:05:39;;;;;;;;;3.50;1.00;;;;;12.33;53.79;101617.84;2458682;27;44707;-75
2022/05/29 05:06:52;;;;;;;;;5.00;5.00;;;;;12.31;53.89;101623.16;2456939;27;48247;-75
2022/05/29 05:08:04;;;;;;;;;4.50;2.50;;;;;12.33;54.16;101623.09;2453857;27;45321;-75
2022/05/29 05:09:14;;;;;;;;;3.75;2.75;;;;;12.33;53.99;101616.06;2461024;27;45321;-75
2022/05/29 05:10:24;;;;;;;;;3.25;3.25;;;;;12.36;54.31;101615.13;2460005;27;45261;-75
2022/05/29 05:11:35;;;;;;;;;3.00;3.00;;;;;12.40;54.15;101621.16;2460818;27;45711;-75
2022/05/29 05:12:46;;;;;;;;;2.25;2.00;;;;;12.41;54.03;101613.25;2462026;27;44529;-75
2022/05/29 05:13:57;;;;;;;;;6.50;2.75;;;;;12.44;54.15;101622.84;2461854;27;45320;-75
2022/05/29 05:15:09;;;;;;;;;2.50;2.50;;;;;12.44;53.94;101617.56;2458654;27;45151;-75
2022/05/29 05:16:20;;;;;;;;;3.00;3.00;;;;;12.44;54.12;101621.06;2451668;27;47522;-75
2022/05/29 05:17:30;;;;;;;;;3.75;3.75;;;;;12.39;54.18;101615.06;2452101;27;45346;-75
2022/05/29 05:18:41;;;;;;;;;3.50;2.00;;;;;12.38;54.18;101622.09;2457712;27;46907;-76
2022/05/29 05:19:51;;;;;;;;;4.00;3.25;;;;;12.39;54.49;101622.97;2464025;27;44764;-75
2022/05/29 05:21:04;;;;;;;;;3.75;3.50;;;;;12.37;54.39;101620.34;2461046;27;47318;-75
2022/05/29 05:22:15;;;;;;;;;5.75;3.00;;;;;12.33;54.39;101615.19;2461341;27;45254;-75
2022/05/29 05:23:27;;;;;;;;;2.00;2.00;;;;;12.31;54.34;101617.88;2455719;27;45552;-75
2022/05/29 05:24:38;;;;;;;;;4.50;2.75;;;;;12.30;54.06;101615.31;2452274;27;45243;-75
2022/05/29 05:25:48;;;;;;;;;6.00;3.00;;;;;12.26;54.66;101620.66;2455459;27;45370;-75
2022/05/29 05:26:59;;;;;;;;;2.25;2.25;;;;;12.23;54.96;101625.13;2459907;27;45304;-75
2022/05/29 05:28:09;;;;;;;;;4.25;3.75;;;;;12.22;54.71;101620.78;2452064;27;46370;-75
2022/05/29 05:29:20;;;;;;;;;4.00;3.00;;;;;12.21;54.55;101616.38;2451829;27;45322;-75
2022/05/29 05:30:31;;;;;;;;;5.25;3.00;;;;;12.23;54.96;101622.47;2451569;27;46075;-75
2022/05/29 05:31:41;;;;;;;;;2.75;2.00;;;;;12.24;54.78;101618.97;2451894;28;44699;-75
2022/05/29 05:32:52;;;;;;;;;3.25;3.25;;;;;12.23;54.83;101618.09;2458339;27;48010;-75
2022/05/29 05:34:02;;;;;;;;;3.00;2.75;;;;;12.22;55.08;101616.34;2453904;27;45468;-75
2022/05/29 05:35:13;;;;;;;;;3.00;2.00;;;;;12.21;55.50;101619.91;2457674;27;46049;-75
2022/05/29 05:36:23;;;;;;;;;4.25;3.50;;;;;12.21;54.82;101621.66;2451984;27;44664;-75
2022/05/29 05:37:35;;;;;;;;;4.00;2.75;;;;;12.19;54.91;101618.22;2451674;27;45272;-75
2022/05/29 05:38:46;;;;;;;;;7.50;4.25;;;;;12.18;55.10;101619.09;2452004;27;44621;-75
2022/05/29 05:39:57;;;;;;;;;2.50;2.00;;;;;12.18;54.92;101621.72;2450867;28;47264;-75
2022/05/29 05:41:12;;;;;;;;;3.50;3.50;;;;;12.17;55.18;101615.63;2452152;27;45306;-75
2022/05/29 05:42:22;;;;;;;;;4.00;4.00;;;;;12.17;55.19;101617.38;2459841;27;45433;-75
2022/05/29 05:43:32;;;;;;;;;3.75;2.75;;;;;12.18;55.12;101619.09;2461362;27;45351;-75
2022/05/29 05:44:43;;;;;;;;;3.25;3.25;;;;;12.19;55.32;101619.06;2454735;27;48236;-75
2022/05/29 05:45:53;;;;;;;;;1.50;1.00;;;;;12.20;55.13;101614.69;2457218;27;45795;-75
2022/05/29 05:47:03;;;;;;;;;4.00;4.00;;;;;12.20;54.98;101612.88;2451727;27;45365;-75
2022/05/29 05:48:15;;;;;;;;;5.00;3.00;;;;;12.22;55.08;101618.13;2459809;27;45237;-75
2022/05/29 05:49:25;;;;;;;;;5.25;2.75;;;;;12.27;55.11;101610.97;2454962;27;47574;-75
2022/05/29 05:50:37;;;;;;;;;5.00;3.00;;;;;12.30;55.16;101616.16;2458509;27;45254;-75
2022/05/29 05:51:50;;;;;;;;;3.25;3.25;;;;;12.31;55.27;101615.25;2460259;27;47448;-75
2022/05/29 05:53:00;;;;;;;;;4.00;3.00;;;;;12.34;55.42;101623.09;2455838;27;44740;-75
2022/05/29 05:54:12;;;;;;;;;3.75;3.50;;;;;12.36;55.03;101616.00;2452284;27;47863;-75
2022/05/29 05:55:22;;;;;;;;;5.25;5.25;;;;;12.38;55.05;101619.47;2459546;27;44759;-75
2022/05/29 05:56:32;;;;;;;;;3.00;3.00;;;;;12.35;54.90;101614.25;2451841;27;47199;-75
2022/05/29 05:57:43;;;;;;;;;3.75;2.75;;;;;12.37;55.45;101615.06;2450726;27;45678;-75
2022/05/29 05:58:53;;;;;;;;;4.75;4.50;;;;;12.42;55.23;101619.38;2451621;27;45572;-75
2022/05/29 06:00:08;;;;;;;;;7.25;3.75;;;;;12.45;55.16;101611.38;2451998;27;45262;-75
2022/05/29 06:01:18;;;;;;;;;6.50;3.75;;;;;12.50;54.83;101622.66;2451134;27;46261;-75